createdAt,value
2023-04-26T00:02:30.416Z,8
2023-04-26T00:07:46.662Z,8
2023-04-26T00:13:03.019Z,7
2023-04-26T00:18:19.458Z,9
2023-04-26T00:23:35.787Z,10
2023-04-26T00:28:52.394Z,9
2023-04-26T00:34:08.559Z,6
2023-04-26T00:39:24.949Z,7
2023-04-26T00:44:41.324Z,7
2023-04-26T00:49:57.700Z,6
2023-04-26T00:55:14.302Z,8
2023-04-26T01:00:30.692Z,7
2023-04-26T01:05:47.056Z,8
2023-04-26T01:11:32.774Z,8
2023-04-26T01:16:49.181Z,9
2023-04-26T01:22:05.515Z,10
2023-04-26T01:27:21.897Z,9
2023-04-26T01:32:38.320Z,9
2023-04-26T01:37:54.657Z,11
2023-04-26T01:43:11.037Z,10
2023-04-26T01:48:27.387Z,9
2023-04-26T01:53:43.769Z,13
2023-04-26T01:59:00.182Z,12
2023-04-26T02:04:16.577Z,12
2023-04-26T02:09:32.898Z,10
2023-04-26T02:14:49.277Z,9
2023-04-26T02:20:05.672Z,9
2023-04-26T02:25:22.054Z,8
2023-04-26T02:30:38.430Z,8
2023-04-26T02:35:54.787Z,9
2023-04-26T02:41:11.168Z,10
2023-04-26T02:46:27.592Z,11
2023-04-26T02:51:43.920Z,8
2023-04-26T02:57:00.314Z,11
2023-04-26T03:02:16.756Z,9
2023-04-26T03:07:33.076Z,12
2023-04-26T03:12:50.174Z,13
2023-04-26T03:18:06.631Z,10
2023-04-26T03:23:22.977Z,9
2023-04-26T03:28:39.397Z,11
2023-04-26T03:33:55.776Z,10
2023-04-26T03:39:12.161Z,11
2023-04-26T03:44:30.953Z,13
2023-04-26T03:49:44.926Z,12
2023-04-26T03:55:02.023Z,15
2023-04-26T04:00:18.410Z,14
2023-04-26T04:05:34.826Z,14
2023-04-26T04:10:51.185Z,16
2023-04-26T04:16:07.588Z,16
2023-04-26T04:21:23.927Z,15
2023-04-26T04:26:40.352Z,14
2023-04-26T04:31:56.741Z,13
2023-04-26T04:37:13.208Z,12
2023-04-26T04:42:29.616Z,20
2023-04-26T04:47:46.123Z,26
2023-04-26T04:53:02.420Z,17
2023-04-26T04:58:18.816Z,20
2023-04-26T05:03:35.378Z,17
2023-04-26T05:08:51.695Z,22
2023-04-26T05:14:08.070Z,18
2023-04-26T05:19:24.495Z,18
2023-04-26T05:24:40.910Z,16
2023-04-26T05:29:57.263Z,16
2023-04-26T05:35:13.680Z,21
2023-04-26T05:40:30.062Z,15
2023-04-26T05:45:46.406Z,11
2023-04-26T05:51:02.820Z,10
2023-04-26T05:56:19.154Z,13
2023-04-26T06:01:35.572Z,6
2023-04-26T06:06:51.926Z,7
2023-04-26T06:12:08.350Z,20
2023-04-26T06:17:25.228Z,15
2023-04-26T06:22:41.531Z,11
2023-04-26T06:27:57.926Z,18
2023-04-26T06:33:14.271Z,6
2023-04-26T06:38:31.390Z,4
2023-04-26T06:43:47.739Z,10
2023-04-26T06:49:04.146Z,1
2023-04-26T06:54:20.468Z,2
2023-04-26T06:59:36.840Z,2
2023-04-26T07:04:53.795Z,4
2023-04-26T07:10:09.758Z,2
2023-04-26T07:15:26.086Z,2
2023-04-26T07:20:42.463Z,2
2023-04-26T07:25:58.802Z,2
2023-04-26T07:31:15.145Z,1
2023-04-26T07:36:31.478Z,3
2023-04-26T07:41:47.834Z,6
2023-04-26T07:47:04.188Z,3
2023-04-26T07:52:20.526Z,11
2023-04-26T07:57:36.880Z,2
2023-04-26T08:02:53.366Z,2
2023-04-26T08:08:09.598Z,2
2023-04-26T08:13:29.123Z,4
2023-04-26T08:18:43.938Z,5
2023-04-26T08:23:58.617Z,2
2023-04-26T08:29:14.951Z,2
2023-04-26T08:34:31.267Z,1
2023-04-26T08:39:47.615Z,0
2023-04-26T08:45:03.934Z,0
2023-04-26T08:50:20.277Z,0
2023-04-26T08:55:36.589Z,4
2023-04-26T09:00:52.916Z,0
2023-04-26T09:06:09.209Z,1
2023-04-26T09:11:25.498Z,0
2023-04-26T09:16:41.904Z,1
2023-04-26T09:21:58.156Z,2
2023-04-26T09:27:14.620Z,2
2023-04-26T09:32:30.701Z,1
2023-04-26T09:37:57.264Z,0
2023-04-26T09:43:03.276Z,1
2023-04-26T09:48:19.559Z,0
2023-04-26T09:53:35.813Z,0
2023-04-26T09:58:53.029Z,4
2023-04-26T10:04:09.034Z,2
2023-04-26T10:09:25.238Z,2
2023-04-26T10:14:41.512Z,1
2023-04-26T10:19:57.799Z,1
2023-04-26T10:25:14.064Z,2
2023-04-26T10:30:30.352Z,3
2023-04-26T10:35:46.631Z,0
2023-04-26T10:41:02.921Z,0
2023-04-26T10:46:19.332Z,1
2023-04-26T10:51:35.457Z,2
2023-04-26T10:56:51.729Z,0
2023-04-26T11:02:08.005Z,0
2023-04-26T11:07:24.267Z,0
2023-04-26T11:12:41.313Z,1
2023-04-26T11:17:57.631Z,2
2023-04-26T11:23:13.862Z,0
2023-04-26T11:28:31.652Z,0
2023-04-26T11:33:47.799Z,1
2023-04-26T11:39:02.618Z,0
2023-04-26T11:44:18.880Z,0
2023-04-26T11:49:35.176Z,0
2023-04-26T11:54:52.722Z,0
2023-04-26T12:00:09.049Z,0
2023-04-26T12:05:25.423Z,2
2023-04-26T12:10:41.656Z,1
2023-04-26T12:15:57.997Z,2
2023-04-26T12:21:14.316Z,0
2023-04-26T12:26:30.643Z,1
2023-04-26T12:31:47.062Z,1
2023-04-26T12:37:03.314Z,3
2023-04-26T12:42:19.627Z,2
2023-04-26T12:47:35.973Z,2
2023-04-26T12:52:52.288Z,3
2023-04-26T12:58:08.645Z,2
2023-04-26T13:03:25.109Z,2
2023-04-26T13:08:41.271Z,5
2023-04-26T13:13:57.588Z,4
2023-04-26T13:19:13.932Z,4
2023-04-26T13:24:30.248Z,2
2023-04-26T13:29:46.593Z,2
2023-04-26T13:35:02.913Z,2
2023-04-26T13:40:19.231Z,1
2023-04-26T13:45:35.804Z,1
2023-04-26T13:50:51.918Z,1
2023-04-26T13:56:08.197Z,2
2023-04-26T14:01:24.577Z,1
2023-04-26T14:06:40.861Z,1
2023-04-26T14:12:06.988Z,2
2023-04-26T14:17:14.275Z,0
2023-04-26T14:22:30.622Z,0
2023-04-26T14:27:46.955Z,1
2023-04-26T14:33:03.282Z,0
2023-04-26T14:38:19.593Z,1
2023-04-26T14:43:35.913Z,0
2023-04-26T14:48:52.999Z,1
2023-04-26T14:54:09.331Z,0
2023-04-26T14:59:25.673Z,1
2023-04-26T15:04:42.120Z,0
2023-04-26T15:09:58.334Z,0
2023-04-26T15:15:14.672Z,1
2023-04-26T15:20:30.988Z,0
2023-04-26T15:25:47.312Z,0
2023-04-26T15:31:03.723Z,1
2023-04-26T15:36:19.981Z,1
2023-04-26T15:41:36.309Z,0
2023-04-26T15:46:52.666Z,2
2023-04-26T15:52:08.990Z,2
2023-04-26T15:57:25.317Z,1
2023-04-26T16:02:41.766Z,0
2023-04-26T16:07:58.080Z,0
2023-04-26T16:13:14.366Z,1
2023-04-26T16:18:30.707Z,5
2023-04-26T16:23:47.089Z,1
2023-04-26T16:29:03.370Z,1
2023-04-26T16:34:20.000Z,2
2023-04-26T16:39:36.077Z,2
2023-04-26T16:44:52.385Z,2
2023-04-26T16:50:08.988Z,5
2023-04-26T16:55:25.324Z,2
2023-04-26T17:00:41.656Z,4
2023-04-26T17:05:57.964Z,3
2023-04-26T17:11:14.316Z,2
2023-04-26T17:16:30.744Z,2
2023-04-26T17:21:47.001Z,2
2023-04-26T17:27:03.764Z,19
2023-04-26T17:32:20.086Z,12
2023-04-26T17:37:36.415Z,3
2023-04-26T17:42:52.751Z,3
2023-04-26T17:48:09.144Z,5
2023-04-26T17:53:25.451Z,7
2023-04-26T17:58:42.090Z,4
2023-04-26T18:03:58.618Z,4
2023-04-26T18:09:14.796Z,4
2023-04-26T18:14:31.132Z,5
2023-04-26T18:19:47.486Z,9
2023-04-26T18:25:03.847Z,14
2023-04-26T18:30:20.199Z,8
2023-04-26T18:35:36.553Z,8
2023-04-26T18:40:52.943Z,9
2023-04-26T18:46:09.322Z,9
2023-04-26T18:51:25.641Z,7
2023-04-26T18:56:42.512Z,22
2023-04-26T19:01:59.024Z,47
2023-04-26T19:07:15.292Z,27
2023-04-26T19:12:31.699Z,39
2023-04-26T19:17:50.347Z,22
2023-04-26T19:23:04.476Z,35
2023-04-26T19:28:20.863Z,26
2023-04-26T19:33:37.227Z,18
2023-04-26T19:38:53.614Z,43
2023-04-26T19:44:09.737Z,35
2023-04-26T19:49:27.807Z,22
2023-04-26T19:54:42.510Z,33
2023-04-26T19:59:58.888Z,16
2023-04-26T20:05:15.273Z,26
2023-04-26T20:10:31.685Z,27
2023-04-26T20:15:48.074Z,22
2023-04-26T20:21:04.468Z,18
2023-04-26T20:26:20.841Z,15
2023-04-26T20:31:37.594Z,18
2023-04-26T20:36:53.566Z,8
2023-04-26T20:42:09.945Z,7
2023-04-26T20:47:26.435Z,6
2023-04-26T20:52:42.739Z,8
2023-04-26T20:57:59.116Z,8
2023-04-26T21:03:15.621Z,6
2023-04-26T21:08:31.853Z,5
2023-04-26T21:13:48.189Z,8
2023-04-26T21:19:04.561Z,7
2023-04-26T21:24:20.919Z,12
2023-04-26T21:29:37.298Z,6
2023-04-26T21:34:53.642Z,8
2023-04-26T21:40:10.357Z,10
2023-04-26T21:45:26.554Z,9
2023-04-26T21:50:42.927Z,8
2023-04-26T21:55:59.295Z,7
2023-04-26T22:01:15.750Z,9
2023-04-26T22:06:32.038Z,8
2023-04-26T22:11:48.379Z,8
2023-04-26T22:17:04.754Z,7
2023-04-26T22:22:21.134Z,7
2023-04-26T22:27:37.491Z,9
2023-04-26T22:32:53.959Z,7
2023-04-26T22:38:10.238Z,8
2023-04-26T22:43:26.612Z,18
2023-04-26T22:48:43.020Z,18
2023-04-26T22:53:59.390Z,16
2023-04-26T22:59:15.799Z,16
2023-04-26T23:04:32.201Z,19
2023-04-26T23:09:48.649Z,14
2023-04-26T23:15:04.912Z,14
2023-04-26T23:20:21.286Z,18
2023-04-26T23:25:37.657Z,16
2023-04-26T23:30:54.026Z,16
2023-04-26T23:36:10.421Z,20
2023-04-26T23:41:26.794Z,20
2023-04-26T23:46:43.239Z,14
2023-04-26T23:51:59.567Z,17
2023-04-26T23:57:16.408Z,17
